.
WxDataArchive / Data Records for 2005-12-17
2005-12-16 December 2005 2005-12-18

Data Records for Saturday, 17 December 2005

Time	Temp	Chill	HIndex	Humid	Dewpt	 Wind 	HiWind	WindDir	Rain 	Barom 
-----	----	-----	------	-----	-----	------	------	-------	-----	----- 
00:00	23.6	23.6	23.6	70	15.3	2	6	248	0.00	30.183 
00:05	23.5	23.5	23.5	71	15.5	2	6	270	0.00	30.183 
00:10	23.2	23.2	23.2	71	15.2	2	6	248	0.00	30.183 
00:15	23.2	23.2	23.2	71	15.2	2	5	248	0.00	30.187 
00:20	23.0	23.0	23.0	71	15.0	2	6	248	0.00	30.187 
00:25	22.9	22.9	22.9	72	15.2	2	5	248	0.00	30.187 
00:30	22.7	22.7	22.7	72	15.1	3	6	248	0.00	30.195 
00:35	22.7	22.7	22.7	72	15.1	3	6	248	0.00	30.195 
00:40	22.5	22.5	22.5	72	14.9	3	5	248	0.00	30.195 
00:45	22.5	22.5	22.5	73	15.2	2	8	248	0.00	30.200 
00:50	22.4	22.4	22.4	73	15.1	2	7	248	0.00	30.200 
00:55	22.2	22.2	22.2	73	14.9	3	8	248	0.00	30.200 
01:00	22.2	22.2	22.2	72	14.6	3	7	248	0.00	30.202 
01:05	22.1	22.1	22.1	73	14.8	2	5	248	0.00	30.202 
01:10	21.9	21.9	21.9	73	14.6	2	6	248	0.00	30.202 
01:15	21.9	21.9	21.9	73	14.6	2	9	248	0.00	30.212 
01:20	21.8	21.8	21.8	73	14.5	3	6	248	0.00	30.212 
01:25	21.6	21.6	21.6	73	14.3	2	5	248	0.00	30.212 
01:30	21.6	21.6	21.6	73	14.3	2	6	248	0.00	30.215 
01:35	21.4	21.4	21.4	73	14.1	2	5	248	0.00	30.215 
01:40	21.3	21.3	21.3	73	14.0	1	4	248	0.00	30.215 
01:45	21.1	21.1	21.1	73	13.8	2	5	248	0.00	30.220 
01:50	21.1	21.1	21.1	73	13.8	2	5	248	0.00	30.220 
01:55	21.0	21.0	21.0	73	13.7	2	4	248	0.00	30.220 
02:00	20.8	20.8	20.8	73	13.5	1	4	248	0.00	30.228 
02:05	20.8	20.8	20.8	73	13.5	2	6	248	0.00	30.228 
02:10	20.8	20.8	20.8	73	13.5	2	4	248	0.00	30.228 
02:15	20.6	20.6	20.6	73	13.3	2	5	248	0.00	30.234 
02:20	20.6	20.6	20.6	73	13.3	2	7	248	0.00	30.234 
02:25	20.6	20.6	20.6	73	13.3	2	5	248	0.00	30.234 
02:30	20.5	20.5	20.5	73	13.2	2	4	248	0.00	30.250 
02:35	20.5	20.5	20.5	73	13.2	3	6	248	0.00	30.250 
02:40	20.5	20.5	20.5	73	13.2	2	5	248	0.00	30.250 
02:45	20.3	20.3	20.3	73	13.1	2	4	248	0.00	30.262 
02:50	20.3	20.3	20.3	74	13.4	3	6	248	0.00	30.262 
02:55	20.3	20.3	20.3	73	13.1	3	7	248	0.00	30.262 
03:00	20.3	20.3	20.3	73	13.1	2	5	248	0.00	30.268 
03:05	20.2	20.2	20.2	74	13.3	2	4	248	0.00	30.268 
03:10	20.0	20.0	20.0	74	13.1	2	5	248	0.00	30.268 
03:15	19.9	19.9	19.9	74	13.0	1	4	248	0.00	30.278 
03:20	19.9	19.9	19.9	74	13.0	2	5	248	0.00	30.278 
03:25	19.9	19.9	19.9	74	13.0	3	9	248	0.00	30.278 
03:30	19.9	19.9	19.9	74	13.0	3	6	248	0.00	30.283 
03:35	19.7	19.7	19.7	74	12.8	2	7	248	0.00	30.283 
03:40	19.7	19.7	19.7	74	12.8	2	6	248	0.00	30.283 
03:45	19.5	19.5	19.5	74	12.6	3	5	248	0.00	30.296 
03:50	19.4	19.4	19.4	74	12.5	2	5	248	0.00	30.296 
03:55	19.4	19.4	19.4	74	12.5	2	5	248	0.00	30.296 
04:00	19.2	19.2	19.2	74	12.3	2	5	248	0.00	30.297 
04:05	19.2	19.2	19.2	75	12.6	2	4	248	0.00	30.297 
04:10	19.2	19.2	19.2	75	12.6	2	6	248	0.00	30.297 
04:15	19.1	19.1	19.1	75	12.5	1	5	248	0.00	30.304 
04:20	18.9	18.9	18.9	76	12.6	2	4	248	0.00	30.304 
04:25	18.9	18.9	18.9	76	12.6	2	4	248	0.00	30.304 
04:30	18.9	18.9	18.9	76	12.6	2	5	248	0.00	30.311 
04:35	18.8	18.8	18.8	76	12.5	1	3	248	0.00	30.311 
04:40	18.6	18.6	18.6	76	12.3	1	4	248	0.00	30.311 
04:45	18.4	18.4	18.4	77	12.4	1	4	248	0.00	30.316 
04:50	18.3	18.3	18.3	77	12.3	1	6	248	0.00	30.316 
04:55	18.3	18.3	18.3	77	12.3	1	4	270	0.00	30.316 
05:00	18.3	18.3	18.3	77	12.3	2	6	248	0.00	30.318 
05:05	18.3	18.3	18.3	76	12.0	2	6	248	0.00	30.318 
05:10	18.1	18.1	18.1	76	11.8	1	4	248	0.00	30.318 
05:15	18.1	18.1	18.1	76	11.8	2	5	248	0.00	30.329 
05:20	18.1	18.1	18.1	76	11.8	2	5	248	0.00	30.329 
05:25	18.1	18.1	18.1	76	11.8	2	4	248	0.00	30.329 
05:30	18.0	18.0	18.0	76	11.7	2	4	248	0.00	30.328 
05:35	17.8	17.8	17.8	76	11.5	2	6	248	0.00	30.328 
05:40	17.7	17.7	17.7	76	11.4	1	4	248	0.00	30.328 
05:45	17.7	17.7	17.7	77	11.7	2	4	248	0.00	30.333 
05:50	17.5	17.5	17.5	77	11.5	1	3	248	0.00	30.333 
05:55	17.5	17.5	17.5	77	11.5	2	5	248	0.00	30.333 
06:00	17.3	17.3	17.3	77	11.3	1	3	248	0.00	30.337 
06:05	17.2	17.2	17.2	77	11.3	1	3	248	0.00	30.337 
06:10	17.2	17.2	17.2	77	11.3	2	4	248	0.00	30.337 
06:15	17.2	17.2	17.2	77	11.3	1	5	248	0.00	30.352 
06:20	17.0	17.0	17.0	77	11.1	1	3	248	0.00	30.352 
06:25	17.0	17.0	17.0	77	11.1	1	3	248	0.00	30.352 
06:30	16.9	16.9	16.9	77	11.0	1	4	248	0.00	30.366 
06:35	16.9	16.9	16.9	78	11.3	1	3	248	0.00	30.366 
06:40	16.9	16.9	16.9	78	11.3	2	4	248	0.00	30.366 
06:45	17.0	17.0	17.0	78	11.3	2	4	248	0.00	30.373 
06:50	17.0	17.0	17.0	78	11.3	2	6	248	0.00	30.373 
06:55	17.0	17.0	17.0	78	11.3	2	7	248	0.00	30.373 
07:00	17.2	17.2	17.2	77	11.3	3	7	248	0.00	30.380 
07:05	17.0	17.0	17.0	77	11.1	2	5	248	0.00	30.380 
07:10	17.0	17.0	17.0	77	11.1	2	5	248	0.00	30.380 
07:15	16.9	16.9	16.9	78	11.3	1	5	248	0.00	30.380 
07:20	16.7	16.7	16.7	77	10.8	2	5	248	0.00	30.380 
07:25	16.7	16.7	16.7	78	11.1	2	6	248	0.00	30.380 
07:30	16.5	16.5	16.5	78	10.9	2	4	248	0.00	30.381 
07:35	16.4	16.4	16.4	79	11.0	1	4	248	0.00	30.381 
07:40	16.4	16.4	16.4	79	11.0	1	4	248	0.00	30.381 
07:45	16.2	16.2	16.2	79	10.9	1	4	248	0.00	30.384 
07:50	16.2	16.2	16.2	80	11.1	1	4	248	0.00	30.384 
07:55	16.1	16.1	16.1	80	11.0	1	4	248	0.00	30.384 
08:00	16.1	16.1	16.1	80	11.0	2	4	248	0.00	30.395 
08:05	16.1	16.1	16.1	80	11.0	1	3	248	0.00	30.395 
08:10	15.9	15.9	15.9	81	11.1	1	3	248	0.00	30.395 
08:15	15.9	15.9	15.9	81	11.1	1	5	248	0.00	30.402 
08:20	15.7	15.7	15.7	81	10.9	1	3	248	0.00	30.402 
08:25	15.7	15.7	15.7	81	10.9	1	3	248	0.00	30.402 
08:30	15.7	15.7	15.7	81	10.9	1	3	248	0.00	30.413 
08:35	15.7	15.7	15.7	80	10.6	1	2	270	0.00	30.413 
08:40	15.7	15.7	15.7	80	10.6	1	2	248	0.00	30.413 
08:45	15.9	15.9	15.9	80	10.8	0	2	248	0.00	30.415 
08:50	16.1	16.1	16.1	80	11.0	1	3	248	0.00	30.415 
08:55	16.2	16.2	16.2	79	10.9	1	3	248	0.00	30.415 
09:00	16.5	16.5	16.5	79	11.1	1	4	248	0.00	30.419 
09:05	16.9	16.9	16.9	78	11.3	1	4	248	0.00	30.419 
09:10	17.2	17.2	17.2	77	11.3	2	7	248	0.00	30.419 
09:15	17.7	17.7	17.7	77	11.7	2	6	248	0.00	30.429 
09:20	18.0	18.0	18.0	76	11.7	2	6	248	0.00	30.429 
09:25	18.1	18.1	18.1	75	11.5	2	7	248	0.00	30.429 
09:30	18.4	18.4	18.4	75	11.8	2	5	248	0.00	30.441 
09:35	18.8	18.8	18.8	74	11.9	2	6	248	0.00	30.441 
09:40	19.1	19.1	19.1	74	12.2	2	6	270	0.00	30.441 
09:45	19.2	19.2	19.2	74	12.3	3	6	248	0.00	30.446 
09:50	19.2	19.2	19.2	74	12.3	3	10	248	0.00	30.446 
09:55	19.5	19.5	19.5	73	12.3	2	6	248	0.00	30.446 
10:00	19.9	19.9	19.9	73	12.7	2	6	248	0.00	30.457 
10:05	20.3	20.3	20.3	73	13.1	1	3	248	0.00	30.457 
10:10	20.5	20.5	20.5	72	12.9	3	9	248	0.00	30.457 
10:15	20.6	20.6	20.6	71	12.7	2	6	248	0.00	30.462 
10:20	20.8	20.8	20.8	71	12.9	1	5	270	0.00	30.462 
10:25	21.0	21.0	21.0	71	13.1	1	3	270	0.00	30.462 
10:30	21.0	21.0	21.0	70	12.8	2	4	270	0.00	30.467 
10:35	21.1	21.1	21.1	69	12.5	2	3	270	0.00	30.467 
10:40	21.0	21.0	21.0	70	12.8	2	5	270	0.00	30.467 
10:45	21.1	21.1	21.1	69	12.5	2	4	248	0.00	30.472 
10:50	21.1	21.1	21.1	70	12.9	2	5	270	0.00	30.472 
10:55	21.1	21.1	21.1	70	12.9	2	5	270	0.00	30.472 
11:00	21.1	21.1	21.1	69	12.5	2	5	270	0.00	30.475 
11:05	21.1	21.1	21.1	70	12.9	2	4	248	0.00	30.475 
11:10	21.3	21.3	21.3	70	13.1	2	5	270	0.00	30.475 
11:15	21.4	21.4	21.4	69	12.8	2	3	248	0.00	30.473 
11:20	21.8	21.8	21.8	69	13.2	1	3	248	0.00	30.473 
11:25	21.9	21.9	21.9	68	13.0	2	5	248	0.00	30.473 
11:30	22.1	22.1	22.1	69	13.5	2	4	248	0.00	30.470 
11:35	22.4	22.4	22.4	67	13.1	2	5	270	0.00	30.470 
11:40	22.5	22.5	22.5	68	13.6	2	4	270	0.00	30.470 
11:45	22.7	22.7	22.7	67	13.4	2	10	248	0.00	30.472 
11:50	22.7	16.2	22.7	66	13.1	5	11	270	0.00	30.472 
11:55	22.7	22.7	22.7	65	12.7	3	11	270	0.00	30.472 
12:00	22.7	22.7	22.7	66	13.1	3	10	270	0.00	30.473 
12:05	22.9	22.9	22.9	65	12.9	3	6	270	0.00	30.473 
12:10	22.7	17.3	22.7	65	12.7	4	15	270	0.00	30.473 
12:15	22.7	17.3	22.7	66	13.1	4	13	270	0.00	30.471 
12:20	22.9	22.9	22.9	67	13.6	3	7	248	0.00	30.471 
12:25	23.0	17.7	23.0	65	13.0	4	9	248	0.00	30.471 
12:30	22.9	17.6	22.9	65	12.9	4	7	270	0.00	30.467 
12:35	23.2	23.2	23.2	64	12.9	3	7	270	0.00	30.467 
12:40	23.2	17.9	23.2	66	13.6	4	9	248	0.00	30.467 
12:45	23.5	23.5	23.5	65	13.5	2	4	270	0.00	30.459 
12:50	23.8	23.8	23.8	64	13.4	2	4	248	0.00	30.459 
12:55	23.8	23.8	23.8	63	13.1	3	11	270	0.00	30.459 
13:00	23.6	23.6	23.6	63	12.9	3	10	270	0.00	30.456 
13:05	23.6	23.6	23.6	64	13.2	3	7	248	0.00	30.456 
13:10	24.1	24.1	24.1	63	13.4	2	7	270	0.00	30.456 
13:15	24.2	24.2	24.2	64	13.8	3	9	270	0.00	30.457 
13:20	23.9	18.7	23.9	63	13.2	4	10	270	0.00	30.457 
13:25	23.9	23.9	23.9	63	13.2	3	10	270	0.00	30.457 
13:30	23.8	18.6	23.8	64	13.4	4	12	248	0.00	30.456 
13:35	23.9	23.9	23.9	64	13.5	2	5	270	0.00	30.456 
13:40	23.9	23.9	23.9	63	13.2	3	6	270	0.00	30.456 
13:45	23.9	23.9	23.9	64	13.5	3	6	270	0.00	30.458 
13:50	23.9	23.9	23.9	64	13.5	3	5	270	0.00	30.458 
13:55	23.8	18.6	23.8	65	13.8	4	13	270	0.00	30.458 
14:00	23.8	23.8	23.8	64	13.4	3	7	248	0.00	30.458 
14:05	23.8	23.8	23.8	64	13.4	3	7	270	0.00	30.458 
14:10	24.1	24.1	24.1	64	13.7	2	4	248	0.00	30.458 
14:15	24.2	24.2	24.2	64	13.8	3	9	270	0.00	30.459 
14:20	24.1	19.0	24.1	63	13.4	4	12	270	0.00	30.459 
14:25	24.2	24.2	24.2	64	13.8	2	10	248	0.00	30.459 
14:30	24.4	24.4	24.4	63	13.6	3	6	270	0.00	30.458 
14:35	24.5	24.5	24.5	63	13.7	2	6	248	0.00	30.458 
14:40	24.4	24.4	24.4	63	13.6	3	7	270	0.00	30.458 
14:45	24.4	24.4	24.4	63	13.6	3	8	270	0.00	30.469 
14:50	24.4	24.4	24.4	63	13.6	2	5	270	0.00	30.469 
14:55	24.5	24.5	24.5	63	13.7	3	9	248	0.00	30.469 
15:00	24.5	24.5	24.5	64	14.1	2	5	270	0.00	30.464 
15:05	24.7	24.7	24.7	62	13.6	2	5	270	0.00	30.464 
15:10	24.8	24.8	24.8	62	13.7	2	7	270	0.00	30.464 
15:15	24.7	24.7	24.7	62	13.6	2	5	270	0.00	30.466 
15:20	24.7	24.7	24.7	63	13.9	1	3	248	0.00	30.466 
15:25	24.8	24.8	24.8	62	13.7	1	3	270	0.00	30.466 
15:30	25.1	25.1	25.1	62	13.9	2	7	270	0.00	30.469 
15:35	25.3	25.3	25.3	61	13.8	3	7	270	0.00	30.469 
15:40	25.3	25.3	25.3	61	13.8	2	5	248	0.00	30.469 
15:45	25.3	25.3	25.3	61	13.8	2	5	248	0.00	30.473 
15:50	25.3	25.3	25.3	62	14.1	2	4	248	0.00	30.473 
15:55	25.1	25.1	25.1	62	13.9	1	3	248	0.00	30.473 
16:00	25.0	25.0	25.0	62	13.8	1	3	248	0.00	30.475 
16:05	25.0	25.0	25.0	61	13.5	3	10	248	0.00	30.475 
16:10	25.0	25.0	25.0	62	13.8	1	3	248	0.00	30.475 
16:15	24.8	24.8	24.8	62	13.7	2	5	248	0.00	30.476 
16:20	24.7	24.7	24.7	63	13.9	1	4	248	0.00	30.476 
16:25	24.5	24.5	24.5	62	13.4	2	7	270	0.00	30.476 
16:30	24.5	24.5	24.5	62	13.4	2	5	248	0.00	30.477 
16:35	24.4	24.4	24.4	62	13.3	2	5	248	0.00	30.477 
16:40	24.2	24.2	24.2	63	13.4	2	5	248	0.00	30.477 
16:45	24.1	24.1	24.1	63	13.4	1	5	248	0.00	30.482 
16:50	23.9	23.9	23.9	63	13.2	1	3	248	0.00	30.482 
16:55	23.9	23.9	23.9	64	13.5	1	3	248	0.00	30.482 
17:00	23.8	23.8	23.8	64	13.4	1	5	248	0.00	30.482 
17:05	23.6	23.6	23.6	64	13.2	1	3	248	0.00	30.482 
17:10	23.5	23.5	23.5	65	13.5	0	2	248	0.00	30.482 
17:15	23.3	23.3	23.3	65	13.3	1	3	248	0.00	30.487 
17:20	23.2	23.2	23.2	65	13.2	1	3	248	0.00	30.487 
17:25	23.0	23.0	23.0	66	13.4	0	2	248	0.00	30.487 
17:30	22.9	22.9	22.9	66	13.3	1	3	248	0.00	30.491 
17:35	22.7	22.7	22.7	66	13.1	0	2	248	0.00	30.491 
17:40	22.4	22.4	22.4	67	13.1	0	1	248	0.00	30.491 
17:45	22.1	22.1	22.1	68	13.2	0	1	248	0.00	30.495 
17:50	21.8	21.8	21.8	68	12.9	0	0	---	0.00	30.495 
17:55	21.3	21.3	21.3	69	12.7	0	0	---	0.00	30.495 
18:00	21.0	21.0	21.0	70	12.8	0	1	248	0.00	30.496 
18:05	20.6	20.6	20.6	71	12.7	0	0	---	0.00	30.496 
18:10	20.3	20.3	20.3	72	12.7	0	0	---	0.00	30.496 
18:15	19.9	19.9	19.9	72	12.4	0	0	---	0.00	30.501 
18:20	19.5	19.5	19.5	73	12.3	0	0	---	0.00	30.501 
18:25	19.2	19.2	19.2	74	12.3	0	0	---	0.00	30.501 
18:30	18.9	18.9	18.9	75	12.3	0	0	---	0.00	30.510 
18:35	18.6	18.6	18.6	76	12.3	0	0	---	0.00	30.510 
18:40	18.6	18.6	18.6	76	12.3	0	0	---	0.00	30.510 
18:45	18.4	18.4	18.4	77	12.4	0	0	---	0.00	30.516 
18:50	18.3	18.3	18.3	77	12.3	0	0	---	0.00	30.516 
18:55	18.3	18.3	18.3	77	12.3	0	0	---	0.00	30.516 
19:00	18.1	18.1	18.1	78	12.4	0	0	---	0.00	30.512 
19:05	17.8	17.8	17.8	78	12.1	0	0	---	0.00	30.512 
19:10	17.5	17.5	17.5	78	11.8	0	0	---	0.00	30.512 
19:15	17.3	17.3	17.3	79	11.9	0	0	---	0.00	30.517 
19:20	17.0	17.0	17.0	79	11.6	0	0	---	0.00	30.517 
19:25	16.7	16.7	16.7	80	11.6	0	0	---	0.00	30.517 
19:30	16.5	16.5	16.5	81	11.7	0	0	---	0.00	30.522 
19:35	16.5	16.5	16.5	81	11.7	0	0	---	0.00	30.522 
19:40	16.4	16.4	16.4	81	11.6	0	0	---	0.00	30.522 
19:45	16.2	16.2	16.2	82	11.7	0	0	---	0.00	30.519 
19:50	16.1	16.1	16.1	83	11.9	0	0	---	0.00	30.519 
19:55	15.9	15.9	15.9	83	11.7	0	0	---	0.00	30.519 
20:00	15.6	15.6	15.6	83	11.4	0	0	---	0.00	30.518 
20:05	15.4	15.4	15.4	84	11.4	0	0	---	0.00	30.518 
20:10	15.2	15.2	15.2	84	11.3	0	0	---	0.00	30.518 
20:15	14.9	14.9	14.9	84	11.0	0	0	---	0.00	30.517 
20:20	14.8	14.8	14.8	84	10.9	0	0	---	0.00	30.517 
20:25	14.4	14.4	14.4	84	10.5	0	0	---	0.00	30.517 
20:30	14.3	14.3	14.3	85	10.6	0	0	---	0.00	30.513 
20:35	14.1	14.1	14.1	85	10.4	0	0	---	0.00	30.513 
20:40	13.8	13.8	13.8	85	10.1	0	0	---	0.00	30.513 
20:45	13.6	13.6	13.6	85	9.9	0	0	---	0.00	30.506 
20:50	13.5	13.5	13.5	86	10.1	0	0	---	0.00	30.506 
20:55	13.3	13.3	13.3	86	9.9	0	0	---	0.00	30.506 
21:00	13.1	13.1	13.1	86	9.7	0	0	---	0.00	30.514 
21:05	12.9	12.9	12.9	87	9.8	0	0	---	0.00	30.514 
21:10	12.9	12.9	12.9	87	9.8	0	0	---	0.00	30.514 
21:15	13.1	13.1	13.1	87	10.0	0	0	---	0.00	30.516 
21:20	13.1	13.1	13.1	88	10.2	0	0	---	0.00	30.516 
21:25	13.1	13.1	13.1	88	10.2	0	0	---	0.00	30.516 
21:30	13.1	13.1	13.1	87	10.0	0	0	---	0.00	30.518 
21:35	12.9	12.9	12.9	87	9.8	0	0	---	0.00	30.518 
21:40	12.9	12.9	12.9	88	10.0	0	0	---	0.00	30.518 
21:45	13.1	13.1	13.1	88	10.2	0	0	---	0.00	30.520 
21:50	13.3	13.3	13.3	88	10.4	0	0	---	0.00	30.520 
21:55	13.3	13.3	13.3	88	10.4	0	0	---	0.00	30.520 
22:00	13.3	13.3	13.3	88	10.4	0	0	---	0.00	30.517 
22:05	13.3	13.3	13.3	87	10.2	0	0	---	0.00	30.517 
22:10	13.1	13.1	13.1	87	10.0	0	0	---	0.00	30.517 
22:15	12.9	12.9	12.9	87	9.8	0	0	---	0.00	30.515 
22:20	12.9	12.9	12.9	87	9.8	0	0	---	0.00	30.515 
22:25	12.8	12.8	12.8	86	9.4	0	0	---	0.00	30.515 
22:30	12.6	12.6	12.6	86	9.2	0	0	---	0.00	30.510 
22:35	12.3	12.3	12.3	85	8.7	0	0	---	0.00	30.510 
22:40	12.1	12.1	12.1	86	8.7	0	0	---	0.00	30.510 
22:45	12.1	12.1	12.1	86	8.7	0	0	---	0.00	30.510 
22:50	11.9	11.9	11.9	86	8.5	0	0	---	0.00	30.510 
22:55	11.9	11.9	11.9	86	8.5	0	0	---	0.00	30.510 
23:00	11.9	11.9	11.9	86	8.5	0	0	---	0.00	30.508 
23:05	11.7	11.7	11.7	85	8.1	0	0	---	0.00	30.508 
23:10	11.6	11.6	11.6	85	8.0	0	0	---	0.00	30.508 
23:15	11.2	11.2	11.2	85	7.6	0	0	---	0.00	30.509 
23:20	11.6	11.6	11.6	87	8.5	0	1	248	0.00	30.509 
23:25	11.7	11.7	11.7	86	8.3	0	0	---	0.00	30.509 
23:30	11.6	11.6	11.6	86	8.2	0	0	---	0.00	30.516 
23:35	11.6	11.6	11.6	86	8.2	0	0	---	0.00	30.516 
23:40	11.4	11.4	11.4	86	8.0	0	0	---	0.00	30.516 
23:45	11.2	11.2	11.2	85	7.6	0	0	---	0.00	30.519 
23:50	11.2	11.2	11.2	86	7.8	0	0	---	0.00	30.519 
23:55	11.1	11.1	11.1	86	7.7	0	0	---	0.00	30.519 

CoCoRaHS
IN-AL-39
A2 Web Hosting
Creative Commons License
GoDaddy
Look for:

loaded 2017-12-13 19:44:49 • last modified 2010-11-18 10:43:29
Privacy PolicyDisclaimer
• wx.awcolley.com is powered by PmWiki v.2002016 •
• all content (unless otherwise noted) © 2017 A W Colley